Omskiy-141 — UGZK — position and weather

sailwx.info

Track history (hours):
 
Tides and Currents Weather Stations Pressure Air Temp Water Temp Dewpoint Dewpoint Depression Visibility Wind Speed Wind Dir Waves Ship Positions

Omskiy-141

Last reported at 2015-Mar-03 18:33 UTC. Time now 2015-Mar-06 14:09 UTC.
Position N 55°34' E 015°17'.

Length 108 m; draft 2.6 m.

Type: Cargo ship. MMSI: 273310600.

Date/timePositionNaut miles runAvg speedWind from/ knotsBaromVisibWave heightAir tempDewpointWater temp
2015-Mar-03 18:33N 55°34' E 015°17'9 8.8
2015-Mar-03 17:34N 55°30' E 015°04'9 8.7
2015-Mar-03 16:34N 55°26' E 014°50'9 8.6
2015-Mar-03 15:34N 55°21' E 014°38'8 8.3
2015-Mar-03 14:34N 55°15' E 014°28'8 7.9
2015-Mar-03 13:33N 55°11' E 014°15'9 8.7
2015-Mar-03 12:33N 55°10' E 014°00'28 8.8
2015-Mar-03 09:24N 55°13' E 013°12'8 8.8
2015-Mar-03 08:32N 55°14' E 012°58'9 8.8
2015-Mar-03 07:34N 55°17' E 012°44'7 6.6
2015-Mar-03 06:33N 55°23' E 012°39'9 8.6
2015-Mar-03 05:33N 55°31' E 012°42'1010.0
2015-Mar-03 04:34N 55°41' E 012°41'10 9.6
2015-Mar-03 03:34N 55°51' E 012°40'9 9.0
2015-Mar-03 02:34N 55°60' E 012°38'9 8.8
2015-Mar-03 01:34N 56°07' E 012°29'9 8.9
2015-Mar-03 00:33N 56°10' E 012°14'9 8.5
2015-Mar-02 23:33N 56°08' E 011°59'58 8.3
2015-Mar-02 16:34N 56°09' E 010°15'1 1.2
2015-Mar-02 15:23N 56°09' E 010°13'0 0.0
2015-Mar-02 14:32N 56°09' E 010°13'0 0.0
2015-Mar-02 13:26N 56°09' E 010°13'0 0.0
2015-Mar-02 12:32N 56°09' E 010°13'0 0.0
2015-Mar-02 11:14N 56°09' E 010°13'0 0.0
2015-Mar-02 10:29N 56°09' E 010°13'0 0.0
2015-Mar-02 09:32N 56°09' E 010°13'0 0.0
2015-Mar-02 08:32N 56°09' E 010°13'0 0.0
2015-Mar-02 07:32N 56°09' E 010°13'0 0.0
2015-Mar-02 06:29N 56°09' E 010°13'0 0.0
2015-Feb-28 15:29N 56°09' E 010°14'1 1.5
2015-Feb-28 14:33N 56°09' E 010°16'62 7.7
2015-Feb-28 06:32N 56°09' E 012°08'8 7.9
2015-Feb-28 05:33N 56°10' E 012°21'8 7.7
2015-Feb-28 04:33N 56°06' E 012°34'8 8.2
2015-Feb-28 03:33N 55°59' E 012°42'8 7.9
2015-Feb-28 02:33N 55°52' E 012°44'8 8.0
2015-Feb-28 01:33N 55°44' E 012°41'8 7.6
2015-Feb-28 00:33N 55°36' E 012°42'7 7.2
2015-Feb-27 23:33N 55°29' E 012°43'8 8.1
2015-Feb-27 22:33N 55°21' E 012°41'7 7.1
2015-Feb-27 21:33N 55°16' E 012°51'8 8.4
2015-Feb-27 20:33N 55°16' E 013°05'8 8.5
2015-Feb-27 19:33N 55°15' E 013°20'9 8.6
2015-Feb-27 18:33N 55°15' E 013°35'8 8.4
2015-Feb-27 17:33N 55°14' E 013°50'9 8.6
2015-Feb-27 16:33N 55°12' E 014°05'7 6.9
2015-Feb-27 15:33N 55°10' E 014°16'9 8.6
2015-Feb-27 14:33N 55°04' E 014°28'9 8.6
2015-Feb-27 13:33N 54°59' E 014°40'8 8.2
2015-Feb-27 12:33N 54°55' E 014°52'8 8.2
2015-Feb-27 11:33N 54°54' E 015°06'98 8.6
2015-Feb-27 00:09N 54°55' E 017°57'6 9.0
2015-Feb-26 23:28N 54°55' E 018°08'8 9.0
2015-Feb-26 22:33N 54°55' E 018°22'9 9.1
2015-Feb-26 21:33N 54°52' E 018°37'9 9.0
2015-Feb-26 20:33N 54°50' E 018°52'9 8.8
2015-Feb-26 19:33N 54°47' E 019°07'9 8.7
2015-Feb-26 18:33N 54°45' E 019°22'9 8.5
2015-Feb-26 17:31N 54°43' E 019°36'11 8.3
2015-Feb-26 16:10N 54°38' E 019°54'4 6.8
2015-Feb-26 15:33N 54°38' E 020°01'7 7.0
2015-Feb-26 14:33N 54°41' E 020°12'0 0.0
2015-Feb-26 12:23N 54°41' E 020°12'0 0.1
2015-Feb-26 10:05N 54°41' E 020°12'0 0.0
2015-Feb-26 09:26N 54°41' E 020°12'10 0.3
2015-Feb-25 00:33N 54°38' E 019°56'5 5.3
2015-Feb-24 23:32N 54°40' E 019°47'0 0.0
2015-Feb-24 22:33N 54°40' E 019°47'0 0.0
2015-Feb-24 21:33N 54°40' E 019°47'1 0.5
2015-Feb-24 20:34N 54°40' E 019°46'8 8.0
2015-Feb-24 19:32N 54°42' E 019°33'8 8.4
2015-Feb-24 18:33N 54°45' E 019°19'8 8.0
2015-Feb-24 17:33N 54°47' E 019°06'8 7.8
2015-Feb-24 16:34N 54°50' E 018°53'8 7.6
2015-Feb-24 15:33N 54°52' E 018°40'8 7.9
2015-Feb-24 14:34N 54°54' E 018°27'8 7.8
2015-Feb-24 13:33N 54°55' E 018°14'41 8.1
2015-Feb-24 08:31N 54°50' E 017°03'63 8.5
2015-Feb-24 01:03N 54°39' E 015°15'31 8.6
2015-Feb-23 21:25N 54°36' E 014°21'7 8.5
2015-Feb-23 20:33N 54°38' E 014°09'9 8.5
2015-Feb-23 19:33N 54°40' E 013°55'9 8.8
2015-Feb-23 18:33N 54°43' E 013°40'9 8.5
2015-Feb-23 17:33N 54°44' E 013°25'9 8.6
2015-Feb-23 16:32N 54°44' E 013°10'9 8.4
2015-Feb-23 15:30N 54°44' E 012°55'8 8.2
2015-Feb-23 14:33N 54°41' E 012°43'9 8.8
2015-Feb-23 13:33N 54°36' E 012°30'9 8.9
2015-Feb-23 12:34N 54°31' E 012°18'9 9.2
2015-Feb-23 11:33N 54°24' E 012°09'9 9.2
2015-Feb-23 10:34N 54°15' E 012°06'7 7.4
2015-Feb-23 09:33N 54°07' E 012°05'0 0.1
2015-Feb-23 08:09N 54°07' E 012°05'0 0.0
2015-Feb-23 07:21N 54°07' E 012°05'0 0.0
2015-Feb-23 06:33N 54°07' E 012°05'0 0.0
2015-Feb-23 05:18N 54°07' E 012°05'0 0.0
2015-Feb-23 04:30N 54°07' E 012°05'0 0.0
2015-Feb-23 03:21N 54°07' E 012°05'0 0.0
2015-Feb-23 02:33N 54°07' E 012°05'0 0.0
2015-Feb-23 01:33N 54°07' E 012°05'0 0.0
2015-Feb-23 00:30N 54°07' E 012°05'0 0.0
2015-Feb-22 23:33N 54°07' E 012°05'0 0.0
2015-Feb-22 22:27N 54°07' E 012°05'0 0.0
2015-Feb-22 21:33N 54°07' E 012°05'0 0.0
2015-Feb-22 20:24N 54°07' E 012°05'0 0.0
2015-Feb-22 19:18N 54°07' E 012°05'0 0.0
2015-Feb-22 18:33N 54°07' E 012°05'0 0.0
2015-Feb-22 17:33N 54°07' E 012°05'0 0.0
2015-Feb-22 16:33N 54°07' E 012°05'0 0.0
2015-Feb-22 15:33N 54°07' E 012°05'0 0.0
2015-Feb-22 14:15N 54°07' E 012°05'0 0.0
2015-Feb-22 13:27N 54°07' E 012°05'0 0.0
2015-Feb-22 12:30N 54°07' E 012°05'0 0.0
2015-Feb-22 11:06N 54°07' E 012°05'0 0.0
2015-Feb-22 10:30N 54°07' E 012°05'0 0.0
2015-Feb-22 09:33N 54°07' E 012°05'0 0.0
2015-Feb-22 08:24N 54°07' E 012°05'0 0.0
2015-Feb-22 07:33N 54°07' E 012°05'0 0.0
2015-Feb-22 06:30N 54°07' E 012°05'0 0.0
2015-Feb-22 05:30N 54°07' E 012°05'0 0.0
2015-Feb-22 04:30N 54°07' E 012°05'0 0.0
2015-Feb-22 03:30N 54°07' E 012°05'0 0.0
2015-Feb-22 02:33N 54°07' E 012°05'0 0.0
2015-Feb-22 01:18N 54°07' E 012°05'0 0.0
2015-Feb-22 00:33N 54°07' E 012°05'0 0.0
2015-Feb-21 23:33N 54°07' E 012°05'0 0.0
2015-Feb-21 22:33N 54°07' E 012°05'0 0.0
2015-Feb-21 21:03N 54°07' E 012°05'0 0.0
2015-Feb-21 20:09N 54°07' E 012°05'0 0.0
2015-Feb-21 19:33N 54°07' E 012°05'0 0.0
2015-Feb-21 18:33N 54°07' E 012°05'  
Track history (hours):
 
Tides and Currents Weather Stations Pressure Air Temp Water Temp Dewpoint Dewpoint Depression Visibility Wind Speed Wind Dir Waves Ship Positions

Omskiy-141

Last reported at 2015-Mar-03 18:33 UTC. Time now 2015-Mar-06 14:09 UTC.
Position N 55°34' E 015°17'.

Length 108 m; draft 2.6 m.

Type: Cargo ship. MMSI: 273310600.

Date/timePositionNaut miles runAvg speedWind from/ knotsBaromVisibWave heightAir tempDewpointWater temp
2015-Mar-03 18:33N 55°34' E 015°17'9 8.8
2015-Mar-03 17:34N 55°30' E 015°04'9 8.7
2015-Mar-03 16:34N 55°26' E 014°50'9 8.6
2015-Mar-03 15:34N 55°21' E 014°38'8 8.3
2015-Mar-03 14:34N 55°15' E 014°28'8 7.9
2015-Mar-03 13:33N 55°11' E 014°15'9 8.7
2015-Mar-03 12:33N 55°10' E 014°00'28 8.8
2015-Mar-03 09:24N 55°13' E 013°12'8 8.8
2015-Mar-03 08:32N 55°14' E 012°58'9 8.8
2015-Mar-03 07:34N 55°17' E 012°44'7 6.6
2015-Mar-03 06:33N 55°23' E 012°39'9 8.6
2015-Mar-03 05:33N 55°31' E 012°42'1010.0
2015-Mar-03 04:34N 55°41' E 012°41'10 9.6
2015-Mar-03 03:34N 55°51' E 012°40'9 9.0
2015-Mar-03 02:34N 55°60' E 012°38'9 8.8
2015-Mar-03 01:34N 56°07' E 012°29'9 8.9
2015-Mar-03 00:33N 56°10' E 012°14'9 8.5
2015-Mar-02 23:33N 56°08' E 011°59'58 8.3
2015-Mar-02 16:34N 56°09' E 010°15'1 1.2
2015-Mar-02 15:23N 56°09' E 010°13'0 0.0
2015-Mar-02 14:32N 56°09' E 010°13'0 0.0
2015-Mar-02 13:26N 56°09' E 010°13'0 0.0
2015-Mar-02 12:32N 56°09' E 010°13'0 0.0
2015-Mar-02 11:14N 56°09' E 010°13'0 0.0
2015-Mar-02 10:29N 56°09' E 010°13'0 0.0
2015-Mar-02 09:32N 56°09' E 010°13'0 0.0
2015-Mar-02 08:32N 56°09' E 010°13'0 0.0
2015-Mar-02 07:32N 56°09' E 010°13'0 0.0
2015-Mar-02 06:29N 56°09' E 010°13'0 0.0
2015-Feb-28 15:29N 56°09' E 010°14'1 1.5
2015-Feb-28 14:33N 56°09' E 010°16'62 7.7
2015-Feb-28 06:32N 56°09' E 012°08'8 7.9
2015-Feb-28 05:33N 56°10' E 012°21'8 7.7
2015-Feb-28 04:33N 56°06' E 012°34'8 8.2
2015-Feb-28 03:33N 55°59' E 012°42'8 7.9
2015-Feb-28 02:33N 55°52' E 012°44'8 8.0
2015-Feb-28 01:33N 55°44' E 012°41'8 7.6
2015-Feb-28 00:33N 55°36' E 012°42'7 7.2
2015-Feb-27 23:33N 55°29' E 012°43'8 8.1
2015-Feb-27 22:33N 55°21' E 012°41'7 7.1
2015-Feb-27 21:33N 55°16' E 012°51'8 8.4
2015-Feb-27 20:33N 55°16' E 013°05'8 8.5
2015-Feb-27 19:33N 55°15' E 013°20'9 8.6
2015-Feb-27 18:33N 55°15' E 013°35'8 8.4
2015-Feb-27 17:33N 55°14' E 013°50'9 8.6
2015-Feb-27 16:33N 55°12' E 014°05'7 6.9
2015-Feb-27 15:33N 55°10' E 014°16'9 8.6
2015-Feb-27 14:33N 55°04' E 014°28'9 8.6
2015-Feb-27 13:33N 54°59' E 014°40'8 8.2
2015-Feb-27 12:33N 54°55' E 014°52'8 8.2
2015-Feb-27 11:33N 54°54' E 015°06'98 8.6
2015-Feb-27 00:09N 54°55' E 017°57'6 9.0
2015-Feb-26 23:28N 54°55' E 018°08'8 9.0
2015-Feb-26 22:33N 54°55' E 018°22'9 9.1
2015-Feb-26 21:33N 54°52' E 018°37'9 9.0
2015-Feb-26 20:33N 54°50' E 018°52'9 8.8
2015-Feb-26 19:33N 54°47' E 019°07'9 8.7
2015-Feb-26 18:33N 54°45' E 019°22'9 8.5
2015-Feb-26 17:31N 54°43' E 019°36'11 8.3
2015-Feb-26 16:10N 54°38' E 019°54'4 6.8
2015-Feb-26 15:33N 54°38' E 020°01'7 7.0
2015-Feb-26 14:33N 54°41' E 020°12'0 0.0
2015-Feb-26 12:23N 54°41' E 020°12'0 0.1
2015-Feb-26 10:05N 54°41' E 020°12'0 0.0
2015-Feb-26 09:26N 54°41' E 020°12'10 0.3
2015-Feb-25 00:33N 54°38' E 019°56'5 5.3
2015-Feb-24 23:32N 54°40' E 019°47'0 0.0
2015-Feb-24 22:33N 54°40' E 019°47'0 0.0
2015-Feb-24 21:33N 54°40' E 019°47'1 0.5
2015-Feb-24 20:34N 54°40' E 019°46'8 8.0
2015-Feb-24 19:32N 54°42' E 019°33'8 8.4
2015-Feb-24 18:33N 54°45' E 019°19'8 8.0
2015-Feb-24 17:33N 54°47' E 019°06'8 7.8
2015-Feb-24 16:34N 54°50' E 018°53'8 7.6
2015-Feb-24 15:33N 54°52' E 018°40'8 7.9
2015-Feb-24 14:34N 54°54' E 018°27'8 7.8
2015-Feb-24 13:33N 54°55' E 018°14'41 8.1
2015-Feb-24 08:31N 54°50' E 017°03'63 8.5
2015-Feb-24 01:03N 54°39' E 015°15'31 8.6
2015-Feb-23 21:25N 54°36' E 014°21'7 8.5
2015-Feb-23 20:33N 54°38' E 014°09'9 8.5
2015-Feb-23 19:33N 54°40' E 013°55'9 8.8
2015-Feb-23 18:33N 54°43' E 013°40'9 8.5
2015-Feb-23 17:33N 54°44' E 013°25'9 8.6
2015-Feb-23 16:32N 54°44' E 013°10'9 8.4
2015-Feb-23 15:30N 54°44' E 012°55'8 8.2
2015-Feb-23 14:33N 54°41' E 012°43'9 8.8
2015-Feb-23 13:33N 54°36' E 012°30'9 8.9
2015-Feb-23 12:34N 54°31' E 012°18'9 9.2
2015-Feb-23 11:33N 54°24' E 012°09'9 9.2
2015-Feb-23 10:34N 54°15' E 012°06'7 7.4
2015-Feb-23 09:33N 54°07' E 012°05'0 0.1
2015-Feb-23 08:09N 54°07' E 012°05'0 0.0
2015-Feb-23 07:21N 54°07' E 012°05'0 0.0
2015-Feb-23 06:33N 54°07' E 012°05'0 0.0
2015-Feb-23 05:18N 54°07' E 012°05'0 0.0
2015-Feb-23 04:30N 54°07' E 012°05'0 0.0
2015-Feb-23 03:21N 54°07' E 012°05'0 0.0
2015-Feb-23 02:33N 54°07' E 012°05'0 0.0
2015-Feb-23 01:33N 54°07' E 012°05'0 0.0
2015-Feb-23 00:30N 54°07' E 012°05'0 0.0
2015-Feb-22 23:33N 54°07' E 012°05'0 0.0
2015-Feb-22 22:27N 54°07' E 012°05'0 0.0
2015-Feb-22 21:33N 54°07' E 012°05'0 0.0
2015-Feb-22 20:24N 54°07' E 012°05'0 0.0
2015-Feb-22 19:18N 54°07' E 012°05'0 0.0
2015-Feb-22 18:33N 54°07' E 012°05'0 0.0
2015-Feb-22 17:33N 54°07' E 012°05'0 0.0
2015-Feb-22 16:33N 54°07' E 012°05'0 0.0
2015-Feb-22 15:33N 54°07' E 012°05'0 0.0
2015-Feb-22 14:15N 54°07' E 012°05'0 0.0
2015-Feb-22 13:27N 54°07' E 012°05'0 0.0
2015-Feb-22 12:30N 54°07' E 012°05'0 0.0
2015-Feb-22 11:06N 54°07' E 012°05'0 0.0
2015-Feb-22 10:30N 54°07' E 012°05'0 0.0
2015-Feb-22 09:33N 54°07' E 012°05'0 0.0
2015-Feb-22 08:24N 54°07' E 012°05'0 0.0
2015-Feb-22 07:33N 54°07' E 012°05'0 0.0
2015-Feb-22 06:30N 54°07' E 012°05'0 0.0
2015-Feb-22 05:30N 54°07' E 012°05'0 0.0
2015-Feb-22 04:30N 54°07' E 012°05'0 0.0
2015-Feb-22 03:30N 54°07' E 012°05'0 0.0
2015-Feb-22 02:33N 54°07' E 012°05'0 0.0
2015-Feb-22 01:18N 54°07' E 012°05'0 0.0
2015-Feb-22 00:33N 54°07' E 012°05'0 0.0
2015-Feb-21 23:33N 54°07' E 012°05'0 0.0
2015-Feb-21 22:33N 54°07' E 012°05'0 0.0
2015-Feb-21 21:03N 54°07' E 012°05'0 0.0
2015-Feb-21 20:09N 54°07' E 012°05'0 0.0
2015-Feb-21 19:33N 54°07' E 012°05'0 0.0
2015-Feb-21 18:33N 54°07' E 012°05'  

Dump ship's entire track history